Time;durP1;ratioP1;P1;durP2;ratioP2;P2;SDS_P1;SDS_P2;PMS_P1;PMS_P2;Temp;Humidity;BMP_temperature;BMP_pressure;BME280_temperature;BME280_humidity;BME280_pressure;Samples;Min_cycle;Max_cycle;Signal;HPM_P1;HPM_P2
2021/07/14 00:01:47;;;;;;;4.20;2.80;;;22.30;99.90;;;;;;5030300;28;20040;-68
2021/07/14 00:04:13;;;;;;;3.35;2.50;;;22.20;99.90;;;;;;5025546;28;20084;-68
2021/07/14 00:06:38;;;;;;;3.78;2.28;;;22.20;99.90;;;;;;5029495;28;20092;-68
2021/07/14 00:09:13;;;;;;;4.72;2.15;;;22.10;99.90;;;;;;5026124;28;20037;-68
2021/07/14 00:11:42;;;;;;;5.10;2.88;;;22.00;99.90;;;;;;5036879;28;20054;-68
2021/07/14 00:22:37;;;;;;;2.80;2.30;;;21.80;99.90;;;;;;5007133;28;20043;-68
2021/07/14 00:25:05;;;;;;;3.70;1.98;;;21.80;99.90;;;;;;5036872;28;20081;-68
2021/07/14 00:27:31;;;;;;;5.85;2.63;;;21.80;99.90;;;;;;5034544;28;20060;-68
2021/07/14 00:29:59;;;;;;;3.08;2.22;;;21.70;99.90;;;;;;5043165;28;20443;-68
2021/07/14 00:32:25;;;;;;;3.95;1.95;;;21.70;99.90;;;;;;5014918;28;20041;-67
2021/07/14 00:34:52;;;;;;;5.63;2.08;;;21.60;99.90;;;;;;5027944;28;20043;-67
2021/07/14 00:37:18;;;;;;;2.60;2.10;;;21.50;99.90;;;;;;5044224;28;20151;-68
2021/07/14 00:39:45;;;;;;;2.28;1.70;;;21.20;99.90;;;;;;5034020;28;20184;-68
2021/07/14 00:42:11;;;;;;;5.32;2.40;;;21.30;99.90;;;;;;5041436;28;20049;-68
2021/07/14 00:44:37;;;;;;;2.58;2.15;;;21.30;99.90;;;;;;5042816;28;20029;-68
2021/07/14 00:47:05;;;;;;;4.85;1.98;;;21.30;99.90;;;;;;5038046;28;20074;-68
2021/07/14 00:50:13;;;;;;;5.45;2.40;;;21.20;99.90;;;;;;5041172;28;20347;-68
2021/07/14 00:52:39;;;;;;;4.07;2.58;;;21.20;99.90;;;;;;5017690;28;20505;-68
2021/07/14 00:55:05;;;;;;;2.67;2.10;;;21.10;99.90;;;;;;5029301;28;20120;-68
2021/07/14 00:57:32;;;;;;;4.07;1.88;;;21.10;99.90;;;;;;5049671;28;20055;-68
2021/07/14 00:59:58;;;;;;;4.97;1.95;;;21.10;99.90;;;;;;5030313;28;20108;-68
2021/07/14 01:02:27;;;;;;;5.50;2.47;;;21.10;99.90;;;;;;5029150;28;20512;-68
2021/07/14 01:05:18;;;;;;;2.88;2.08;;;20.90;99.90;;;;;;5031792;28;20045;-68
2021/07/14 01:07:58;;;;;;;2.45;2.15;;;21.00;99.90;;;;;;5038170;28;20053;-68
2021/07/14 01:10:38;;;;;;;6.95;2.08;;;21.00;99.90;;;;;;5036282;28;20029;-68
2021/07/14 01:13:24;;;;;;;3.20;2.10;;;20.90;99.90;;;;;;5046507;28;20036;-68
2021/07/14 01:16:03;;;;;;;6.80;2.30;;;20.90;99.90;;;;;;5037171;28;20072;-68
2021/07/14 01:18:52;;;;;;;4.53;2.20;;;20.90;99.90;;;;;;5019902;28;20044;-68
2021/07/14 01:21:32;;;;;;;6.63;1.98;;;20.90;99.90;;;;;;5033722;28;20047;-68
2021/07/14 01:24:01;;;;;;;7.25;2.88;;;20.70;99.90;;;;;;5019669;28;20037;-68
2021/07/14 01:27:11;;;;;;;4.15;2.58;;;20.70;99.90;;;;;;5047887;28;20128;-67
2021/07/14 01:29:49;;;;;;;2.90;2.45;;;20.80;99.90;;;;;;5020239;28;20097;-68
2021/07/14 01:32:16;;;;;;;3.40;2.15;;;20.80;99.90;;;;;;5035539;28;20040;-68
2021/07/14 01:34:57;;;;;;;3.10;2.33;;;20.70;99.90;;;;;;5035173;28;20480;-68
2021/07/14 01:37:25;;;;;;;2.38;2.10;;;20.70;99.90;;;;;;5042272;28;20049;-66
2021/07/14 01:39:54;;;;;;;7.30;2.83;;;20.60;99.90;;;;;;5038363;28;20059;-66
2021/07/14 01:42:23;;;;;;;3.78;2.17;;;20.60;99.90;;;;;;5012719;28;20037;-67
2021/07/14 01:44:52;;;;;;;6.60;2.13;;;20.70;99.90;;;;;;5038040;28;20040;-68
2021/07/14 01:47:20;;;;;;;4.30;1.75;;;20.70;99.90;;;;;;5031390;28;20057;-68
2021/07/14 01:49:47;;;;;;;2.47;1.80;;;20.70;99.90;;;;;;5053167;28;20380;-68
2021/07/14 01:52:17;;;;;;;3.55;1.92;;;20.70;99.90;;;;;;5029671;28;20036;-67
2021/07/14 01:54:44;;;;;;;2.97;1.52;;;20.60;99.90;;;;;;5041065;28;20155;-67
2021/07/14 01:57:11;;;;;;;1.15;1.05;;;20.60;99.90;;;;;;5045400;28;20051;-67
2021/07/14 01:59:39;;;;;;;2.13;1.25;;;20.60;99.90;;;;;;5046326;28;20363;-67
2021/07/14 02:02:06;;;;;;;5.53;2.10;;;20.50;99.90;;;;;;5032029;28;20064;-67
2021/07/14 02:04:34;;;;;;;2.42;1.58;;;20.60;99.90;;;;;;5042682;28;20500;-68
2021/07/14 02:07:24;;;;;;;1.65;1.42;;;20.60;99.90;;;;;;5030397;28;20115;-67
2021/07/14 02:09:52;;;;;;;2.22;1.40;;;20.50;99.90;;;;;;5043468;28;20044;-68
2021/07/14 02:12:21;;;;;;;4.10;2.00;;;20.50;99.90;;;;;;5046535;28;20029;-68
2021/07/14 02:15:01;;;;;;;1.85;1.30;;;20.50;99.90;;;;;;5044832;28;20041;-68
2021/07/14 02:17:42;;;;;;;2.08;1.25;;;20.50;99.90;;;;;;5008370;28;20060;-67
2021/07/14 02:20:21;;;;;;;2.72;1.45;;;20.60;99.90;;;;;;5046900;28;20048;-67
2021/07/14 02:22:50;;;;;;;1.83;1.40;;;20.50;99.90;;;;;;5028760;28;20034;-67
2021/07/14 02:25:16;;;;;;;1.50;1.40;;;20.70;99.90;;;;;;5033913;28;20099;-68
2021/07/14 02:27:43;;;;;;;3.78;1.55;;;20.70;99.90;;;;;;5013870;28;20045;-68
2021/07/14 02:30:18;;;;;;;1.17;1.08;;;20.60;99.90;;;;;;5031972;28;20040;-68
2021/07/14 02:33:03;;;;;;;1.55;1.13;;;20.60;99.90;;;;;;5039600;28;20044;-68
2021/07/14 02:35:30;;;;;;;2.50;1.30;;;20.60;99.90;;;;;;4987080;28;20033;-68
2021/07/14 02:37:56;;;;;;;1.75;1.30;;;20.60;99.90;;;;;;5040303;28;20166;-67
2021/07/14 02:40:36;;;;;;;2.22;1.00;;;20.60;99.90;;;;;;5042711;28;20105;-67
2021/07/14 02:43:04;;;;;;;2.72;1.60;;;20.60;99.90;;;;;;5023212;28;20103;-68
2021/07/14 02:45:33;;;;;;;2.40;1.40;;;20.60;99.90;;;;;;5028623;28;20052;-68
2021/07/14 02:48:00;;;;;;;1.35;1.25;;;20.50;99.90;;;;;;5045695;28;20540;-68
2021/07/14 02:50:30;;;;;;;2.15;1.67;;;20.60;99.90;;;;;;5042761;28;20405;-67
2021/07/14 02:53:02;;;;;;;2.97;1.85;;;20.60;99.90;;;;;;5039521;28;20041;-68
2021/07/14 02:55:31;;;;;;;2.03;1.35;;;20.60;99.90;;;;;;5025797;28;20042;-67
2021/07/14 02:57:58;;;;;;;1.95;1.38;;;20.60;99.90;;;;;;5047348;28;20044;-68
2021/07/14 03:00:26;;;;;;;3.22;1.35;;;20.70;99.90;;;;;;5041519;28;20076;-68
2021/07/14 03:02:52;;;;;;;2.75;1.45;;;20.60;99.90;;;;;;5025945;28;20045;-65
2021/07/14 03:05:19;;;;;;;5.93;1.60;;;20.60;99.90;;;;;;5036460;28;20114;-68
2021/07/14 03:07:47;;;;;;;2.80;1.38;;;20.70;99.90;;;;;;5047254;28;20548;-68
2021/07/14 03:10:21;;;;;;;2.95;1.50;;;20.50;99.90;;;;;;5039554;28;20045;-68
2021/07/14 03:12:55;;;;;;;1.63;1.35;;;20.60;99.90;;;;;;5033876;28;20036;-68
2021/07/14 03:15:21;;;;;;;3.80;2.03;;;20.60;99.90;;;;;;5037372;28;20076;-68
2021/07/14 03:17:50;;;;;;;2.85;1.58;;;20.60;99.90;;;;;;5035908;28;20041;-68
2021/07/14 03:20:16;;;;;;;5.35;1.77;;;20.70;99.90;;;;;;5032378;28;20045;-68
2021/07/14 03:22:46;;;;;;;6.43;1.98;;;20.60;99.90;;;;;;5040023;28;20037;-68
2021/07/14 03:25:13;;;;;;;2.55;1.80;;;20.60;99.90;;;;;;5036800;28;20482;-68
2021/07/14 03:27:46;;;;;;;3.80;1.98;;;20.50;99.90;;;;;;5054807;28;20033;-68
2021/07/14 03:30:13;;;;;;;2.47;1.33;;;20.60;99.90;;;;;;5032835;28;20767;-68
2021/07/14 03:32:39;;;;;;;4.88;2.03;;;20.70;99.90;;;;;;5033032;28;20045;-68
2021/07/14 03:35:06;;;;;;;4.22;1.70;;;20.60;99.90;;;;;;5038183;28;20502;-68
2021/07/14 03:37:32;;;;;;;1.90;1.77;;;20.60;99.90;;;;;;5047011;28;20045;-67
2021/07/14 03:40:01;;;;;;;2.10;1.63;;;20.60;99.90;;;;;;5041222;28;20048;-68
2021/07/14 03:42:26;;;;;;;1.63;1.15;;;20.70;99.90;;;;;;5040247;28;20041;-68
2021/07/14 03:44:53;;;;;;;2.20;1.60;;;20.60;99.90;;;;;;5036394;28;20036;-67
2021/07/14 03:47:19;;;;;;;2.10;1.60;;;20.60;99.90;;;;;;5042973;28;20060;-68
2021/07/14 03:49:46;;;;;;;2.95;1.60;;;20.60;99.90;;;;;;5036100;28;20471;-68
2021/07/14 03:52:13;;;;;;;2.75;1.40;;;20.70;99.90;;;;;;5026754;28;20052;-68
2021/07/14 03:54:39;;;;;;;2.70;1.63;;;20.70;99.90;;;;;;5034567;28;20049;-68
2021/07/14 03:57:08;;;;;;;2.03;1.58;;;20.70;99.90;;;;;;5026675;28;20041;-68
2021/07/14 03:59:33;;;;;;;1.58;1.45;;;20.70;99.90;;;;;;5028584;28;20069;-67
2021/07/14 04:02:01;;;;;;;3.35;1.80;;;20.70;99.90;;;;;;5025918;28;20488;-68
2021/07/14 04:04:26;;;;;;;2.20;1.70;;;20.70;99.90;;;;;;5026933;28;20071;-68
2021/07/14 04:07:31;;;;;;;4.25;1.85;;;20.70;99.90;;;;;;5021631;28;20127;-67
2021/07/14 04:09:57;;;;;;;3.63;1.70;;;20.80;99.90;;;;;;4966993;28;20109;-68
2021/07/14 04:12:23;;;;;;;3.55;1.88;;;20.70;99.90;;;;;;5004391;28;20060;-68
2021/07/14 04:14:48;;;;;;;2.70;1.88;;;20.70;99.90;;;;;;5006704;28;20033;-68
2021/07/14 04:17:14;;;;;;;2.83;1.85;;;20.80;99.90;;;;;;5033591;28;20065;-68
2021/07/14 04:19:40;;;;;;;2.88;1.55;;;20.90;99.90;;;;;;5040689;28;20041;-68
2021/07/14 04:22:08;;;;;;;2.45;1.42;;;20.90;99.90;;;;;;5023808;28;20124;-67
2021/07/14 04:24:34;;;;;;;3.90;1.50;;;20.90;99.90;;;;;;5035774;28;20086;-68
2021/07/14 04:27:00;;;;;;;3.80;1.80;;;20.90;99.90;;;;;;5034336;28;20407;-68
2021/07/14 04:29:26;;;;;;;4.15;1.40;;;20.90;99.90;;;;;;5032237;28;20091;-68
2021/07/14 04:31:52;;;;;;;2.33;1.63;;;20.90;99.90;;;;;;5028136;28;20507;-68
2021/07/14 04:34:18;;;;;;;6.35;2.13;;;20.90;99.90;;;;;;5040809;28;20121;-68
2021/07/14 04:36:43;;;;;;;3.97;1.90;;;20.90;99.90;;;;;;5048122;28;20050;-68
2021/07/14 04:39:10;;;;;;;2.88;1.90;;;20.90;99.90;;;;;;5043069;28;20487;-68
2021/07/14 04:41:36;;;;;;;3.22;2.40;;;20.90;99.90;;;;;;5028826;28;20057;-68
2021/07/14 04:44:07;;;;;;;3.95;1.88;;;21.00;99.90;;;;;;5030917;28;20107;-68
2021/07/14 04:46:36;;;;;;;1.73;1.60;;;21.00;99.90;;;;;;5026761;28;20045;-67
2021/07/14 04:49:01;;;;;;;4.43;1.52;;;21.00;99.90;;;;;;5039301;28;20127;-68
2021/07/14 04:51:27;;;;;;;2.80;1.70;;;21.10;99.90;;;;;;5028683;28;20320;-68
2021/07/14 04:53:54;;;;;;;5.05;1.95;;;21.10;99.90;;;;;;5043125;28;20044;-67
2021/07/14 04:56:19;;;;;;;2.70;1.70;;;21.10;99.90;;;;;;5040024;28;20103;-68
2021/07/14 04:58:46;;;;;;;4.88;1.90;;;21.10;99.90;;;;;;5044224;28;20033;-68
2021/07/14 05:01:13;;;;;;;4.70;2.05;;;21.00;99.90;;;;;;5061191;28;20509;-69
2021/07/14 05:03:40;;;;;;;3.55;1.83;;;21.10;99.90;;;;;;5046350;28;20053;-68
2021/07/14 05:06:06;;;;;;;3.60;2.00;;;21.10;99.90;;;;;;5036778;28;20038;-68
2021/07/14 05:08:31;;;;;;;5.47;2.40;;;21.10;99.90;;;;;;5036670;28;20041;-68
2021/07/14 05:10:57;;;;;;;3.58;2.38;;;21.10;99.90;;;;;;5050364;28;20457;-68
2021/07/14 05:13:23;;;;;;;3.10;1.83;;;21.20;99.90;;;;;;5035050;28;20041;-67
2021/07/14 05:15:48;;;;;;;3.70;2.13;;;21.20;99.90;;;;;;5031591;28;20048;-68
2021/07/14 05:18:14;;;;;;;4.30;2.45;;;21.10;99.90;;;;;;5032520;28;20057;-68
2021/07/14 05:20:40;;;;;;;6.57;2.50;;;21.10;99.90;;;;;;5032376;28;20029;-67
2021/07/14 05:23:06;;;;;;;4.57;2.65;;;21.20;99.90;;;;;;5035441;28;20045;-68
2021/07/14 05:25:32;;;;;;;3.90;2.85;;;21.30;99.90;;;;;;5040013;28;20048;-67
2021/07/14 05:27:58;;;;;;;2.90;2.35;;;21.30;99.90;;;;;;5043670;28;20387;-67
2021/07/14 05:30:23;;;;;;;3.55;2.38;;;21.40;99.90;;;;;;5055869;28;20140;-67
2021/07/14 05:32:49;;;;;;;5.00;2.45;;;21.40;99.90;;;;;;5032965;28;20042;-68
2021/07/14 05:35:15;;;;;;;7.47;2.72;;;21.30;99.90;;;;;;5028013;28;20398;-67
2021/07/14 05:37:40;;;;;;;2.90;1.98;;;21.50;99.90;;;;;;5035790;28;20045;-68
2021/07/14 05:40:07;;;;;;;3.50;2.17;;;21.40;99.90;;;;;;5014638;28;20041;-67
2021/07/14 05:42:32;;;;;;;3.80;2.65;;;21.40;99.90;;;;;;5046953;28;20064;-67
2021/07/14 05:44:58;;;;;;;5.65;2.45;;;21.30;99.90;;;;;;5047405;28;20687;-68
2021/07/14 05:47:24;;;;;;;3.85;3.10;;;21.30;99.90;;;;;;5054026;28;20113;-67
2021/07/14 05:49:49;;;;;;;4.68;2.83;;;21.20;99.90;;;;;;5040661;28;20031;-67
2021/07/14 05:52:15;;;;;;;3.22;2.80;;;21.20;99.90;;;;;;5039760;28;20120;-68
2021/07/14 05:54:42;;;;;;;3.50;3.20;;;21.20;99.90;;;;;;5032815;28;20487;-68
2021/07/14 05:57:08;;;;;;;7.22;2.92;;;21.20;99.90;;;;;;5033643;28;20099;-68
2021/07/14 05:59:34;;;;;;;3.67;3.17;;;21.00;99.90;;;;;;5049749;28;20410;-67
2021/07/14 06:01:59;;;;;;;6.38;3.08;;;20.90;99.90;;;;;;5033361;28;20044;-67
2021/07/14 06:04:25;;;;;;;5.53;3.22;;;21.00;99.90;;;;;;5043484;28;20171;-67
2021/07/14 06:06:51;;;;;;;8.75;4.18;;;21.10;99.90;;;;;;5036047;28;20504;-68
2021/07/14 06:09:16;;;;;;;6.05;3.58;;;21.00;99.90;;;;;;5047791;28;20083;-68
2021/07/14 06:11:42;;;;;;;7.28;3.65;;;21.00;99.90;;;;;;5045864;28;20713;-68
2021/07/14 06:14:09;;;;;;;5.85;3.10;;;21.00;99.90;;;;;;5030979;28;20042;-68
2021/07/14 06:16:35;;;;;;;4.85;3.63;;;21.00;99.90;;;;;;5037820;28;20076;-68
2021/07/14 06:19:00;;;;;;;7.15;3.70;;;21.10;99.90;;;;;;5050567;28;20044;-68
2021/07/14 06:21:26;;;;;;;7.13;4.30;;;21.10;99.90;;;;;;5038414;28;21024;-67
2021/07/14 06:23:52;;;;;;;5.32;3.75;;;21.10;99.90;;;;;;5032615;28;20557;-60
2021/07/14 06:26:18;;;;;;;6.13;3.70;;;21.10;99.90;;;;;;5041457;28;20041;-68
2021/07/14 06:28:44;;;;;;;6.78;3.95;;;21.10;99.90;;;;;;5048490;28;20044;-67
2021/07/14 06:31:10;;;;;;;3.65;3.17;;;21.10;99.90;;;;;;5047917;28;20171;-68
2021/07/14 06:33:38;;;;;;;4.90;3.88;;;21.20;99.90;;;;;;5046123;28;20075;-68
2021/07/14 06:36:04;;;;;;;6.65;3.80;;;21.20;99.90;;;;;;5046301;28;20037;-68
2021/07/14 06:38:30;;;;;;;6.20;3.00;;;21.30;99.90;;;;;;5041117;28;20489;-67
2021/07/14 06:40:56;;;;;;;3.78;3.38;;;21.30;99.90;;;;;;5052405;28;20089;-68
2021/07/14 06:43:22;;;;;;;5.97;4.03;;;21.40;99.90;;;;;;5036698;28;20033;-60
2021/07/14 06:45:48;;;;;;;5.28;3.88;;;21.40;99.90;;;;;;5031861;28;20038;-67
2021/07/14 06:48:14;;;;;;;9.95;4.38;;;21.20;99.90;;;;;;5021710;28;20041;-67
2021/07/14 06:50:40;;;;;;;4.22;3.80;;;21.30;99.90;;;;;;5035882;28;20120;-68
2021/07/14 06:53:06;;;;;;;4.72;3.65;;;21.20;99.90;;;;;;5030304;28;20124;-68
2021/07/14 06:55:32;;;;;;;9.60;3.72;;;21.30;99.90;;;;;;5030782;28;20037;-67
2021/07/14 06:57:58;;;;;;;7.78;4.13;;;21.40;99.90;;;;;;5028778;28;20065;-68
2021/07/14 07:00:24;;;;;;;5.80;4.43;;;21.50;99.90;;;;;;5035949;28;20049;-66
2021/07/14 07:02:50;;;;;;;5.63;3.95;;;21.60;99.90;;;;;;5041476;28;20041;-67
2021/07/14 07:05:15;;;;;;;7.20;4.53;;;21.50;99.90;;;;;;5048520;28;20044;-68
2021/07/14 07:07:41;;;;;;;4.68;3.65;;;21.60;99.90;;;;;;5037872;28;20041;-68
2021/07/14 07:10:08;;;;;;;7.35;4.30;;;21.60;99.90;;;;;;5023124;28;20022;-67
2021/07/14 07:12:34;;;;;;;5.70;3.60;;;21.80;99.90;;;;;;5037621;28;20030;-68
2021/07/14 07:15:00;;;;;;;5.07;4.30;;;22.00;99.90;;;;;;5024590;28;20036;-66
2021/07/14 07:17:25;;;;;;;5.65;4.30;;;21.80;99.90;;;;;;5029355;28;20049;-67
2021/07/14 07:19:51;;;;;;;12.20;4.30;;;22.00;99.90;;;;;;5025196;28;20505;-67
2021/07/14 07:22:16;;;;;;;5.57;3.55;;;22.10;99.90;;;;;;5024976;28;20041;-67
2021/07/14 07:24:42;;;;;;;6.30;4.40;;;22.30;99.90;;;;;;5042631;28;20045;-67
2021/07/14 07:27:08;;;;;;;8.85;4.38;;;22.20;99.90;;;;;;5044876;28;20190;-67
2021/07/14 07:29:36;;;;;;;5.50;4.57;;;22.10;99.90;;;;;;5043711;28;20052;-67
2021/07/14 07:32:01;;;;;;;8.90;4.10;;;22.20;99.90;;;;;;5044880;28;20137;-67
2021/07/14 07:34:27;;;;;;;8.68;4.65;;;22.40;99.90;;;;;;5042002;28;20398;-67
2021/07/14 07:36:53;;;;;;;10.02;4.57;;;22.40;99.90;;;;;;5045675;28;20124;-67
2021/07/14 07:39:19;;;;;;;6.32;4.18;;;22.40;99.90;;;;;;5037774;28;20036;-68
2021/07/14 07:41:45;;;;;;;4.88;3.50;;;22.50;99.90;;;;;;5041828;28;20096;-67
2021/07/14 07:44:11;;;;;;;8.43;4.35;;;22.50;99.90;;;;;;5046634;28;20037;-67
2021/07/14 07:46:40;;;;;;;8.18;5.72;;;22.70;99.90;;;;;;5039413;28;20545;-67
2021/07/14 07:49:05;;;;;;;6.15;4.72;;;22.60;99.90;;;;;;5025539;28;20033;-67
2021/07/14 07:51:31;;;;;;;9.00;4.90;;;22.60;99.90;;;;;;5036306;28;20049;-68
2021/07/14 07:53:57;;;;;;;9.13;5.55;;;22.60;99.90;;;;;;5033538;28;20037;-67
2021/07/14 07:56:26;;;;;;;8.70;5.45;;;22.70;99.90;;;;;;5030458;28;20037;-66
2021/07/14 07:58:52;;;;;;;7.88;4.25;;;22.60;99.90;;;;;;5026565;28;20044;-63
2021/07/14 08:01:18;;;;;;;6.97;4.13;;;22.70;99.90;;;;;;5041463;28;20465;-67
2021/07/14 08:03:43;;;;;;;6.03;5.10;;;22.80;99.90;;;;;;5043586;28;20041;-67
2021/07/14 08:06:09;;;;;;;9.90;4.65;;;22.90;99.90;;;;;;5039758;28;20130;-67
2021/07/14 08:08:35;;;;;;;5.47;4.25;;;22.90;99.90;;;;;;5027970;28;20041;-67
2021/07/14 08:11:01;;;;;;;7.47;4.65;;;22.90;99.90;;;;;;5032721;28;20119;-67
2021/07/14 08:13:26;;;;;;;7.05;4.22;;;22.90;99.90;;;;;;5048255;28;20131;-67
2021/07/14 08:15:55;;;;;;;6.30;4.78;;;23.10;99.90;;;;;;5035783;28;20053;-67
2021/07/14 08:18:22;;;;;;;7.22;4.20;;;23.10;99.90;;;;;;5032196;28;20475;-68
2021/07/14 08:20:48;;;;;;;5.28;4.10;;;23.20;99.90;;;;;;5048946;28;20158;-67
2021/07/14 08:23:14;;;;;;;9.30;3.75;;;23.30;99.90;;;;;;5030356;28;20453;-67
2021/07/14 08:25:39;;;;;;;6.70;4.68;;;23.40;99.90;;;;;;5042619;28;20033;-67
2021/07/14 08:28:06;;;;;;;6.72;4.82;;;23.40;99.90;;;;;;5043347;28;20378;-67
2021/07/14 08:30:32;;;;;;;7.57;5.15;;;23.40;99.90;;;;;;5044040;28;20041;-68
2021/07/14 08:32:58;;;;;;;8.70;5.15;;;23.20;99.90;;;;;;5040993;28;20037;-68
2021/07/14 08:35:26;;;;;;;6.15;4.40;;;23.30;99.90;;;;;;5046022;28;20040;-68
2021/07/14 08:37:52;;;;;;;6.53;4.70;;;23.40;99.90;;;;;;5034695;28;20048;-69
2021/07/14 08:40:18;;;;;;;6.35;4.15;;;23.40;99.90;;;;;;5044992;28;20029;-68
2021/07/14 08:42:47;;;;;;;6.68;4.55;;;23.50;99.90;;;;;;5035947;28;20079;-68
2021/07/14 08:45:17;;;;;;;6.90;4.57;;;23.50;99.90;;;;;;5031223;28;20033;-68
2021/07/14 08:47:44;;;;;;;8.15;4.78;;;23.50;99.90;;;;;;5029857;28;20153;-68
2021/07/14 08:50:11;;;;;;;6.35;4.80;;;23.60;99.90;;;;;;5047159;28;20112;-67
2021/07/14 08:52:42;;;;;;;5.35;3.95;;;23.70;99.90;;;;;;5042411;28;20037;-68
2021/07/14 08:55:12;;;;;;;4.32;3.83;;;23.70;99.90;;;;;;5024981;28;20076;-67
2021/07/14 08:57:38;;;;;;;5.25;3.58;;;23.70;99.90;;;;;;5043006;28;20037;-68
2021/07/14 09:00:11;;;;;;;6.88;3.63;;;23.50;99.90;;;;;;5041900;28;20444;-68
2021/07/14 09:02:39;;;;;;;6.68;3.50;;;23.40;99.90;;;;;;5039119;28;20123;-68
2021/07/14 09:05:06;;;;;;;16.10;5.75;;;23.30;99.90;;;;;;5046807;28;20041;-68
2021/07/14 09:07:32;;;;;;;10.68;5.07;;;22.80;99.90;;;;;;5041227;28;20041;-69
2021/07/14 09:09:58;;;;;;;12.40;4.75;;;21.60;99.90;;;;;;5034700;28;20149;-69
2021/07/14 09:12:39;;;;;;;8.57;4.53;;;20.90;99.90;;;;;;5040683;28;20453;-62
2021/07/14 09:15:10;;;;;;;12.93;5.43;;;19.90;99.90;;;;;;5025623;28;20129;-69
2021/07/14 09:17:48;;;;;;;15.90;5.85;;;19.70;99.90;;;;;;5044589;28;20479;-69
2021/07/14 09:20:23;;;;;;;10.48;5.78;;;19.70;99.90;;;;;;5041366;28;20053;-69
2021/07/14 09:23:10;;;;;;;9.75;4.53;;;19.40;99.90;;;;;;5039738;28;20052;-69
2021/07/14 09:25:46;;;;;;;15.65;6.40;;;19.30;99.90;;;;;;5016244;28;20156;-69
2021/07/14 09:28:13;;;;;;;14.93;6.53;;;19.00;99.90;;;;;;5031028;28;20033;-69
2021/07/14 09:30:40;;;;;;;15.68;7.65;;;19.10;99.90;;;;;;5012163;28;20034;-70
2021/07/14 09:33:08;;;;;;;13.18;6.70;;;19.20;99.90;;;;;;5039210;28;20041;-69
2021/07/14 09:35:47;;;;;;;10.15;5.65;;;19.20;99.90;;;;;;5042453;28;20445;-69
2021/07/14 09:38:17;;;;;;;5.55;4.82;;;19.50;99.90;;;;;;5045291;28;20061;-69
2021/07/14 09:40:47;;;;;;;7.30;5.13;;;19.30;99.90;;;;;;5049038;28;20395;-69
2021/07/14 09:43:18;;;;;;;6.38;4.25;;;19.60;99.90;;;;;;5039350;28;20037;-69
2021/07/14 09:45:47;;;;;;;10.75;5.13;;;19.70;99.90;;;;;;5044470;28;20041;-69
2021/07/14 09:48:19;;;;;;;8.27;5.32;;;20.10;99.90;;;;;;5048465;28;20086;-69
2021/07/14 09:51:10;;;;;;;5.75;4.38;;;21.80;99.90;;;;;;5037206;28;20467;-70
2021/07/14 09:53:38;;;;;;;5.30;3.90;;;21.80;99.90;;;;;;5020850;28;20525;-69
2021/07/14 09:56:13;;;;;;;4.93;3.08;;;21.90;99.90;;;;;;5027423;28;20044;-69
2021/07/14 09:58:40;;;;;;;5.07;3.00;;;21.80;99.90;;;;;;5044620;28;20086;-69
2021/07/14 10:01:06;;;;;;;6.95;2.85;;;21.90;99.90;;;;;;5044821;28;20048;-69
2021/07/14 10:03:38;;;;;;;5.32;3.30;;;21.90;99.90;;;;;;5034618;28;20029;-69
2021/07/14 10:06:13;;;;;;;7.50;3.22;;;21.80;99.90;;;;;;5025806;28;20503;-69
2021/07/14 10:08:46;;;;;;;2.70;2.22;;;21.90;99.90;;;;;;5026422;28;20042;-69
2021/07/14 10:11:22;;;;;;;7.63;2.60;;;21.80;99.90;;;;;;5037129;28;20118;-69
2021/07/14 10:13:52;;;;;;;3.75;2.67;;;21.80;99.90;;;;;;5042844;28;20091;-68
2021/07/14 10:16:19;;;;;;;4.95;2.72;;;22.00;99.90;;;;;;5007680;28;20573;-68
2021/07/14 10:19:19;;;;;;;4.63;2.15;;;22.30;99.90;;;;;;4996297;28;20081;-68
2021/07/14 10:21:47;;;;;;;5.65;2.00;;;22.40;99.90;;;;;;4976501;28;20046;-68
2021/07/14 10:24:16;;;;;;;3.63;2.65;;;22.40;99.90;;;;;;5008899;28;20044;-68
2021/07/14 10:26:45;;;;;;;2.97;2.03;;;22.40;99.90;;;;;;5009128;28;20099;-68
2021/07/14 10:29:12;;;;;;;3.10;2.08;;;22.50;99.90;;;;;;5023296;28;20380;-68
2021/07/14 10:31:38;;;;;;;12.65;2.85;;;22.60;99.90;;;;;;5008007;28;20041;-68
2021/07/14 10:34:06;;;;;;;4.00;2.63;;;22.50;99.90;;;;;;5007891;28;21663;-68
2021/07/14 10:36:35;;;;;;;7.90;2.95;;;22.50;99.90;;;;;;5005298;28;20041;-68
2021/07/14 10:39:09;;;;;;;6.38;2.70;;;22.40;99.90;;;;;;5002900;28;20121;-68
2021/07/14 10:41:35;;;;;;;2.63;1.73;;;22.60;99.90;;;;;;5005598;28;20864;-68
2021/07/14 10:44:04;;;;;;;4.28;2.20;;;22.70;99.90;;;;;;4998957;28;20205;-67
2021/07/14 10:46:31;;;;;;;3.70;2.20;;;23.00;99.90;;;;;;4996426;28;20123;-67
2021/07/14 10:48:59;;;;;;;9.82;2.67;;;23.60;99.90;;;;;;5007946;28;20037;-68
2021/07/14 10:51:27;;;;;;;7.13;3.78;;;23.60;99.90;;;;;;5007587;28;20057;-66
2021/07/14 10:53:57;;;;;;;3.65;2.20;;;23.50;99.90;;;;;;5004645;28;20040;-68
2021/07/14 10:56:43;;;;;;;4.95;2.65;;;23.60;99.90;;;;;;5002995;28;20042;-67
2021/07/14 10:59:10;;;;;;;12.98;4.68;;;23.90;99.90;;;;;;4996293;28;20065;-67
2021/07/14 11:01:42;;;;;;;11.35;5.15;;;24.20;99.90;;;;;;5006735;28;20033;-67
2021/07/14 11:04:18;;;;;;;7.70;4.35;;;24.00;99.90;;;;;;5003165;28;20072;-67
2021/07/14 11:06:57;;;;;;;7.20;2.60;;;24.90;99.90;;;;;;5007914;28;22584;-67
2021/07/14 11:09:50;;;;;;;13.85;5.88;;;27.00;99.90;;;;;;5003362;28;20041;-67
2021/07/14 11:12:29;;;;;;;4.15;2.20;;;27.60;99.90;;;;;;4995644;28;20046;-67
2021/07/14 11:15:00;;;;;;;6.68;2.70;;;29.50;99.90;;;;;;5003138;28;20045;-66
2021/07/14 11:17:33;;;;;;;6.43;2.60;;;29.90;91.10;;;;;;5043825;28;20045;-66
2021/07/14 11:20:09;;;;;;;5.70;3.20;;;30.00;77.80;;;;;;5033695;28;20132;-67
2021/07/14 11:22:45;;;;;;;6.55;2.97;;;29.20;74.60;;;;;;5029449;28;20045;-67
2021/07/14 11:25:27;;;;;;;3.17;2.20;;;28.30;79.80;;;;;;5043239;28;20071;-67
2021/07/14 11:28:06;;;;;;;5.32;2.38;;;27.10;74.40;;;;;;5048012;28;20044;-67
2021/07/14 11:30:37;;;;;;;3.97;1.83;;;26.10;77.10;;;;;;5023830;28;20426;-67
2021/07/14 11:33:04;;;;;;;9.35;3.10;;;25.70;84.50;;;;;;5047306;28;20108;-67
2021/07/14 11:35:53;;;;;;;6.63;3.50;;;25.40;92.40;;;;;;5041284;28;20048;-67
2021/07/14 11:38:22;;;;;;;9.32;4.18;;;25.20;90.30;;;;;;5028189;28;20120;-67
2021/07/14 11:40:51;;;;;;;7.00;3.92;;;25.00;95.30;;;;;;5027220;28;20043;-67
2021/07/14 11:43:20;;;;;;;7.95;3.70;;;24.80;93.60;;;;;;5041566;28;20037;-67
2021/07/14 11:45:52;;;;;;;8.18;5.05;;;24.50;96.90;;;;;;5024829;28;20041;-67
2021/07/14 11:48:24;;;;;;;8.30;3.30;;;24.40;96.70;;;;;;5043845;28;20048;-68
2021/07/14 11:50:57;;;;;;;6.88;4.95;;;24.20;93.70;;;;;;5029246;28;20063;-67
2021/07/14 11:53:29;;;;;;;24.38;16.77;;;24.10;96.00;;;;;;5031311;28;20107;-67
2021/07/14 11:56:05;;;;;;;22.75;14.57;;;23.90;95.40;;;;;;5025187;28;20061;-67
2021/07/14 11:58:45;;;;;;;15.85;7.60;;;24.00;97.80;;;;;;5033698;28;20123;-67
2021/07/14 12:01:24;;;;;;;10.93;6.60;;;23.80;94.80;;;;;;5015492;28;20179;-67
2021/07/14 12:03:59;;;;;;;10.65;4.88;;;23.60;94.30;;;;;;5027961;28;20057;-67
2021/07/14 12:06:44;;;;;;;11.45;4.88;;;23.50;95.90;;;;;;5030327;28;20120;-67
2021/07/14 12:09:12;;;;;;;7.15;3.53;;;23.40;94.80;;;;;;5005068;28;20467;-67
2021/07/14 12:11:49;;;;;;;11.63;5.57;;;23.30;97.50;;;;;;5027783;28;20041;-68
2021/07/14 12:14:16;;;;;;;8.57;4.00;;;23.30;97.20;;;;;;5043506;28;20065;-66
2021/07/14 12:16:50;;;;;;;9.60;4.85;;;23.20;98.10;;;;;;5007239;28;20088;-66
2021/07/14 12:19:34;;;;;;;8.80;5.22;;;23.10;95.80;;;;;;5026380;28;20098;-67
2021/07/14 12:22:11;;;;;;;14.45;5.20;;;23.10;96.10;;;;;;5020577;28;20561;-65
2021/07/14 12:24:42;;;;;;;12.48;5.85;;;23.10;99.90;;;;;;5027641;28;20038;-67
2021/07/14 12:27:17;;;;;;;15.32;7.38;;;22.80;99.90;;;;;;5020693;28;20068;-67
2021/07/14 12:29:52;;;;;;;15.30;10.18;;;22.60;99.90;;;;;;5033575;28;20716;-67
2021/07/14 12:32:47;;;;;;;10.68;6.57;;;22.30;99.90;;;;;;5022885;28;20107;-67
2021/07/14 12:35:16;;;;;;;9.57;4.30;;;22.30;99.90;;;;;;5015486;28;21294;-67
2021/07/14 12:37:57;;;;;;;12.63;10.07;;;22.20;99.90;;;;;;5026958;28;20065;-68
2021/07/14 12:40:29;;;;;;;9.25;7.60;;;22.10;99.90;;;;;;5042804;28;20040;-67
2021/07/14 12:42:58;;;;;;;10.23;5.32;;;22.00;99.90;;;;;;5027296;28;20045;-68
2021/07/14 12:45:25;;;;;;;8.20;5.30;;;21.90;99.90;;;;;;5035539;28;20033;-67
2021/07/14 12:47:51;;;;;;;10.77;4.63;;;22.00;99.90;;;;;;5034150;28;20501;-67
2021/07/14 12:50:21;;;;;;;6.95;4.47;;;21.80;99.90;;;;;;5041664;28;20044;-67
2021/07/14 12:52:52;;;;;;;7.20;4.22;;;21.80;99.90;;;;;;5037687;28;20045;-68
2021/07/14 12:55:20;;;;;;;7.68;5.80;;;21.80;99.90;;;;;;5026530;28;20103;-67
2021/07/14 12:57:46;;;;;;;9.75;6.15;;;22.10;99.90;;;;;;5021927;28;20087;-67
2021/07/14 13:00:12;;;;;;;7.30;6.28;;;22.10;99.90;;;;;;5025849;28;20030;-67
2021/07/14 13:02:42;;;;;;;10.98;5.70;;;22.20;99.90;;;;;;5031994;28;20040;-68
2021/07/14 13:05:17;;;;;;;10.45;4.85;;;22.20;99.90;;;;;;5045850;28;20041;-67
2021/07/14 13:07:46;;;;;;;5.55;3.47;;;22.20;99.90;;;;;;5029221;28;20041;-68